Time;durP1;ratioP1;P1;durP2;ratioP2;P2;SDS_P1;SDS_P2;PMS_P1;PMS_P2;Temp;Humidity;BMP_temperature;BMP_pressure;BME280_temperature;BME280_humidity;BME280_pressure;Samples;Min_cycle;Max_cycle;Signal;HPM_P1;HPM_P2
2022/10/30 00:00:30;;;;;;;5.22;2.85;;;22.90;56.40;;;;;;5031355;28;20128;-48
2022/10/30 00:02:56;;;;;;;6.90;2.97;;;22.90;56.40;;;;;;5047689;28;20033;-47
2022/10/30 00:05:22;;;;;;;5.05;3.33;;;22.90;56.30;;;;;;5048616;28;20031;-55
2022/10/30 00:07:48;;;;;;;7.03;3.17;;;22.90;56.30;;;;;;5047204;28;20059;-51
2022/10/30 00:10:15;;;;;;;6.93;2.83;;;22.90;56.30;;;;;;5047949;28;20401;-52
2022/10/30 00:12:42;;;;;;;4.65;2.72;;;22.90;56.30;;;;;;5049415;28;20048;-51
2022/10/30 00:15:08;;;;;;;6.00;3.42;;;22.90;56.30;;;;;;5048008;28;20034;-53
2022/10/30 00:17:34;;;;;;;4.85;2.80;;;22.90;56.30;;;;;;5044030;28;20076;-53
2022/10/30 00:20:00;;;;;;;5.28;2.88;;;22.90;56.20;;;;;;5047715;28;20056;-48
2022/10/30 00:22:25;;;;;;;5.25;3.17;;;22.90;56.20;;;;;;5052434;28;20572;-47
2022/10/30 00:24:51;;;;;;;6.60;2.92;;;22.90;56.20;;;;;;5052173;28;20025;-50
2022/10/30 00:27:17;;;;;;;6.80;3.03;;;22.90;56.20;;;;;;5050849;28;20080;-47
2022/10/30 00:29:43;;;;;;;5.57;3.22;;;22.90;56.20;;;;;;5050372;28;20471;-46
2022/10/30 00:32:09;;;;;;;6.45;3.25;;;22.90;56.10;;;;;;5050921;28;20021;-48
2022/10/30 00:34:35;;;;;;;6.80;3.40;;;22.90;56.10;;;;;;5051575;28;20025;-47
2022/10/30 00:37:01;;;;;;;4.88;3.35;;;22.90;56.10;;;;;;5052006;28;20106;-47
2022/10/30 00:39:27;;;;;;;6.30;3.10;;;22.90;56.10;;;;;;5050974;28;20112;-50
2022/10/30 00:41:53;;;;;;;4.88;3.10;;;22.90;56.10;;;;;;5051352;28;20025;-49
2022/10/30 00:44:35;;;;;;;6.25;3.42;;;22.80;56.00;;;;;;5051458;28;20477;-47
2022/10/30 00:47:04;;;;;;;6.40;3.10;;;22.80;56.00;;;;;;5049172;28;20033;-49
2022/10/30 00:49:36;;;;;;;7.13;3.33;;;22.80;56.00;;;;;;5051013;28;20037;-51
2022/10/30 00:52:05;;;;;;;8.48;3.20;;;22.90;56.20;;;;;;5055976;28;20444;-48
2022/10/30 00:54:34;;;;;;;6.65;3.28;;;22.80;56.00;;;;;;5049984;28;20033;-46
2022/10/30 00:57:03;;;;;;;5.55;3.00;;;22.80;56.00;;;;;;5051421;28;20021;-47
2022/10/30 00:59:34;;;;;;;5.10;3.00;;;22.80;56.00;;;;;;5047602;28;20024;-48
2022/10/30 01:02:02;;;;;;;4.68;3.25;;;22.80;56.00;;;;;;5051963;28;20352;-50
2022/10/30 01:04:32;;;;;;;5.18;3.30;;;22.80;55.90;;;;;;5037756;28;20033;-50
2022/10/30 01:07:06;;;;;;;5.13;2.63;;;22.80;55.90;;;;;;5050726;28;20029;-49
2022/10/30 01:09:32;;;;;;;7.55;3.03;;;22.80;55.90;;;;;;5047782;28;20044;-51
2022/10/30 01:11:58;;;;;;;5.63;3.10;;;22.80;55.90;;;;;;5040190;28;20035;-49
2022/10/30 01:14:24;;;;;;;4.57;2.83;;;22.80;55.90;;;;;;5038496;28;20018;-50
2022/10/30 01:16:56;;;;;;;3.83;2.80;;;22.80;55.90;;;;;;5050266;28;20041;-47
2022/10/30 01:19:41;;;;;;;6.97;3.15;;;22.80;55.90;;;;;;5048930;28;20036;-49
2022/10/30 01:22:33;;;;;;;6.65;2.92;;;22.80;55.90;;;;;;5050240;28;20029;-51
2022/10/30 01:25:31;;;;;;;6.60;3.40;;;22.80;55.90;;;;;;5051071;28;20039;-47
2022/10/30 01:28:22;;;;;;;5.50;2.92;;;22.80;55.90;;;;;;5049337;28;20044;-51
2022/10/30 01:30:51;;;;;;;5.15;2.97;;;22.80;55.90;;;;;;5039842;28;20026;-49
2022/10/30 01:33:20;;;;;;;5.07;2.85;;;22.80;55.90;;;;;;5038706;28;20037;-52
2022/10/30 01:35:53;;;;;;;4.80;3.20;;;22.70;55.90;;;;;;5050584;28;20047;-48
2022/10/30 01:38:33;;;;;;;4.47;2.72;;;22.70;55.90;;;;;;5035260;28;20025;-49
2022/10/30 01:41:00;;;;;;;7.82;2.97;;;22.70;55.90;;;;;;5048537;28;20728;-48
2022/10/30 01:43:26;;;;;;;4.68;2.92;;;22.70;55.80;;;;;;5047357;28;20370;-47
2022/10/30 01:46:30;;;;;;;5.97;3.00;;;22.70;55.80;;;;;;5034275;28;20407;-51
2022/10/30 01:49:15;;;;;;;10.60;3.75;;;22.70;55.90;;;;;;5040563;28;20041;-47
2022/10/30 01:51:47;;;;;;;5.10;2.70;;;22.70;55.80;;;;;;5047178;28;20026;-47
2022/10/30 01:54:38;;;;;;;5.15;3.33;;;22.70;55.80;;;;;;5049221;28;20040;-48
2022/10/30 01:57:22;;;;;;;4.32;2.33;;;22.70;55.80;;;;;;5051106;28;20041;-47
2022/10/30 02:00:09;;;;;;;5.57;2.83;;;22.70;55.80;;;;;;5036821;28;20028;-47
2022/10/30 02:02:47;;;;;;;5.70;2.50;;;22.70;55.80;;;;;;5032340;28;20051;-49
2022/10/30 02:05:40;;;;;;;4.47;2.53;;;22.70;55.80;;;;;;5049333;28;20472;-48
2022/10/30 02:08:06;;;;;;;5.93;3.10;;;22.70;55.80;;;;;;5039118;28;20045;-48
2022/10/30 02:10:36;;;;;;;5.47;3.20;;;22.70;55.80;;;;;;5039987;28;20039;-48
2022/10/30 02:13:03;;;;;;;3.88;2.53;;;22.70;55.80;;;;;;5048681;28;20080;-52
2022/10/30 02:15:30;;;;;;;5.93;3.00;;;22.60;55.80;;;;;;5048253;28;20044;-53
2022/10/30 02:17:56;;;;;;;4.43;2.55;;;22.60;55.70;;;;;;5036470;28;20047;-52
2022/10/30 02:20:23;;;;;;;4.80;3.17;;;22.70;55.70;;;;;;5038455;28;20037;-52
2022/10/30 02:22:49;;;;;;;5.70;2.92;;;22.70;55.80;;;;;;5049115;28;20135;-51
2022/10/30 02:25:15;;;;;;;6.47;2.65;;;22.70;55.70;;;;;;5049846;28;20460;-48
2022/10/30 02:27:41;;;;;;;4.65;2.92;;;22.70;55.80;;;;;;5049907;28;20060;-46
2022/10/30 02:30:10;;;;;;;6.97;2.90;;;22.70;55.80;;;;;;5048137;28;20447;-48
2022/10/30 02:32:36;;;;;;;5.13;3.00;;;22.60;55.70;;;;;;5048009;28;20029;-47
2022/10/30 02:35:03;;;;;;;7.20;3.13;;;22.60;55.70;;;;;;5049523;28;20033;-46
2022/10/30 02:37:29;;;;;;;5.28;2.80;;;22.60;55.70;;;;;;5048102;28;20406;-46
2022/10/30 02:39:56;;;;;;;4.43;2.78;;;22.60;55.70;;;;;;5048363;28;20389;-47
2022/10/30 02:42:22;;;;;;;4.07;2.83;;;22.70;55.70;;;;;;5043945;28;20063;-47
2022/10/30 02:44:51;;;;;;;4.45;2.85;;;22.60;55.70;;;;;;5047400;28;20115;-48
2022/10/30 02:47:17;;;;;;;6.07;3.22;;;22.60;55.60;;;;;;5047454;28;20033;-46
2022/10/30 02:49:42;;;;;;;6.30;2.83;;;22.60;55.60;;;;;;5048910;28;20041;-48
2022/10/30 02:52:09;;;;;;;5.15;2.90;;;22.60;55.60;;;;;;5048908;28;20048;-48
2022/10/30 02:54:35;;;;;;;4.78;2.63;;;22.60;55.60;;;;;;5047166;28;20356;-47
2022/10/30 02:57:01;;;;;;;5.82;2.50;;;22.60;55.60;;;;;;5048970;28;20032;-48
2022/10/30 02:59:27;;;;;;;4.75;3.08;;;22.60;55.60;;;;;;5047239;28;20039;-48
2022/10/30 03:01:52;;;;;;;8.02;2.70;;;22.60;55.70;;;;;;5048163;28;20020;-47
2022/10/30 03:04:18;;;;;;;5.30;3.08;;;22.60;55.70;;;;;;5047970;28;20029;-50
2022/10/30 03:06:44;;;;;;;4.25;2.45;;;22.60;55.70;;;;;;5049273;28;20384;-49
2022/10/30 03:09:10;;;;;;;5.18;3.22;;;22.60;55.70;;;;;;5047141;28;20047;-48
2022/10/30 03:11:36;;;;;;;4.60;2.92;;;22.60;55.70;;;;;;5048152;28;20037;-50
2022/10/30 03:14:02;;;;;;;5.82;3.20;;;22.60;55.60;;;;;;5049268;28;20044;-46
2022/10/30 03:16:32;;;;;;;5.63;3.17;;;22.60;55.70;;;;;;5038144;28;20364;-51
2022/10/30 03:18:58;;;;;;;5.70;3.28;;;22.60;55.60;;;;;;5041411;28;20120;-47
2022/10/30 03:21:26;;;;;;;7.82;2.70;;;22.50;55.60;;;;;;5045378;28;20032;-47
2022/10/30 03:23:53;;;;;;;5.07;3.05;;;22.60;55.60;;;;;;5046204;28;20121;-47
2022/10/30 03:26:20;;;;;;;4.35;2.63;;;22.60;55.60;;;;;;5048170;28;20128;-50
2022/10/30 03:28:53;;;;;;;5.13;2.63;;;22.60;55.70;;;;;;5046043;28;20033;-49
2022/10/30 03:31:19;;;;;;;6.28;2.83;;;22.50;55.60;;;;;;5047534;28;20025;-51
2022/10/30 03:33:50;;;;;;;4.55;3.00;;;22.50;55.60;;;;;;5045535;28;20447;-50
2022/10/30 03:36:17;;;;;;;4.68;2.80;;;22.50;55.60;;;;;;5047314;28;20053;-47
2022/10/30 03:38:43;;;;;;;4.80;3.00;;;22.50;55.60;;;;;;5048886;28;20063;-49
2022/10/30 03:41:11;;;;;;;5.15;2.80;;;22.50;55.60;;;;;;5047467;28;20120;-48
2022/10/30 03:43:37;;;;;;;4.32;3.25;;;22.50;55.50;;;;;;5047305;28;20104;-51
2022/10/30 03:46:03;;;;;;;7.65;3.08;;;22.50;55.50;;;;;;5036104;28;20241;-49
2022/10/30 03:48:30;;;;;;;5.35;3.17;;;22.50;55.50;;;;;;5045339;28;20051;-49
2022/10/30 03:50:58;;;;;;;5.20;3.05;;;22.50;55.50;;;;;;5047642;28;20365;-50
2022/10/30 03:53:27;;;;;;;7.38;3.67;;;22.50;55.60;;;;;;5048295;28;20025;-47
2022/10/30 03:56:00;;;;;;;5.90;3.55;;;22.50;55.60;;;;;;5039301;28;20090;-48
2022/10/30 03:58:33;;;;;;;6.90;3.50;;;22.50;55.60;;;;;;5038396;28;20035;-48
2022/10/30 04:01:05;;;;;;;6.60;3.60;;;22.50;55.60;;;;;;5051910;28;20025;-47
2022/10/30 04:03:34;;;;;;;6.93;3.63;;;22.50;55.60;;;;;;5051541;28;20043;-50
2022/10/30 04:05:59;;;;;;;6.15;3.45;;;22.50;55.60;;;;;;5039128;28;20047;-49
2022/10/30 04:08:25;;;;;;;7.75;3.25;;;22.40;55.50;;;;;;5040845;28;20037;-46
2022/10/30 04:10:51;;;;;;;6.80;3.80;;;22.50;55.60;;;;;;5051869;28;20139;-48
2022/10/30 04:13:19;;;;;;;6.85;3.60;;;22.50;55.50;;;;;;5051217;28;20032;-48
2022/10/30 04:15:49;;;;;;;6.38;3.60;;;22.50;55.60;;;;;;5050409;28;20037;-48
2022/10/30 04:18:15;;;;;;;5.40;3.10;;;22.40;55.60;;;;;;5051095;28;20440;-51
2022/10/30 04:20:42;;;;;;;6.63;3.03;;;22.40;55.60;;;;;;5050462;28;20112;-53
2022/10/30 04:23:13;;;;;;;5.82;3.53;;;22.40;55.60;;;;;;5050729;28;20033;-53
2022/10/30 04:25:39;;;;;;;8.45;3.88;;;22.40;55.60;;;;;;5035977;28;20021;-50
2022/10/30 04:28:06;;;;;;;5.05;2.92;;;22.40;55.70;;;;;;5051517;28;20419;-47
2022/10/30 04:30:34;;;;;;;6.30;3.97;;;22.40;55.70;;;;;;5050799;28;20029;-46
2022/10/30 04:33:02;;;;;;;6.68;3.50;;;22.40;55.70;;;;;;5049676;28;20040;-51
2022/10/30 04:35:31;;;;;;;6.13;3.20;;;22.40;55.70;;;;;;5050453;28;20025;-49
2022/10/30 04:38:00;;;;;;;5.72;3.03;;;22.40;55.70;;;;;;5037876;28;20143;-49
2022/10/30 04:40:29;;;;;;;6.95;3.38;;;22.40;55.70;;;;;;5049408;28;20123;-49
2022/10/30 04:42:59;;;;;;;5.55;3.10;;;22.40;55.60;;;;;;5048683;28;20025;-47
2022/10/30 04:45:25;;;;;;;4.25;2.60;;;22.40;55.60;;;;;;5049691;28;20174;-46
2022/10/30 04:47:51;;;;;;;5.45;3.20;;;22.40;55.60;;;;;;5050309;28;20029;-50
2022/10/30 04:50:18;;;;;;;4.03;3.25;;;22.40;55.60;;;;;;5049439;28;20380;-47
2022/10/30 04:52:43;;;;;;;4.85;3.22;;;22.40;55.70;;;;;;5051487;28;20024;-50
2022/10/30 04:55:10;;;;;;;6.78;3.50;;;22.40;55.70;;;;;;5035806;28;20364;-50
2022/10/30 04:57:37;;;;;;;4.25;2.92;;;22.40;55.60;;;;;;5040762;28;20151;-47
2022/10/30 05:00:05;;;;;;;6.18;3.10;;;22.40;55.70;;;;;;5036342;28;20044;-48
2022/10/30 05:02:33;;;;;;;5.40;3.35;;;22.40;55.70;;;;;;5050427;28;20025;-50
2022/10/30 05:04:58;;;;;;;6.28;3.30;;;22.30;55.60;;;;;;5050506;28;20451;-47
2022/10/30 05:07:24;;;;;;;6.15;3.15;;;22.40;55.70;;;;;;5038869;28;20129;-48
2022/10/30 05:09:50;;;;;;;4.90;3.08;;;22.40;55.70;;;;;;5050493;28;20049;-47
2022/10/30 05:12:18;;;;;;;7.38;3.22;;;22.30;55.70;;;;;;5029420;28;20033;-50
2022/10/30 05:14:51;;;;;;;4.75;3.05;;;22.40;55.80;;;;;;5050482;28;20036;-51
2022/10/30 05:17:17;;;;;;;4.85;2.85;;;22.30;55.70;;;;;;5008615;28;20128;-52
2022/10/30 05:19:43;;;;;;;4.30;3.05;;;22.30;55.70;;;;;;5013207;28;20120;-49
2022/10/30 05:22:09;;;;;;;5.38;3.33;;;22.40;55.80;;;;;;5007360;28;20448;-49
2022/10/30 05:24:35;;;;;;;6.78;2.85;;;22.30;55.80;;;;;;5011898;28;20025;-51
2022/10/30 05:27:00;;;;;;;6.55;3.20;;;22.30;55.80;;;;;;5008989;28;20629;-52
2022/10/30 05:29:28;;;;;;;8.32;3.40;;;22.30;55.70;;;;;;5011850;28;20041;-46
2022/10/30 05:31:54;;;;;;;5.05;3.25;;;22.30;55.70;;;;;;5004699;28;20040;-50
2022/10/30 05:34:40;;;;;;;4.30;3.05;;;22.30;55.70;;;;;;5030389;28;20402;-50
2022/10/30 05:37:06;;;;;;;5.35;2.70;;;22.30;55.60;;;;;;5014406;28;20457;-51
2022/10/30 05:39:33;;;;;;;4.75;3.28;;;22.30;55.60;;;;;;5009106;28;20041;-51
2022/10/30 05:41:59;;;;;;;5.50;3.33;;;22.30;55.70;;;;;;5028748;28;20087;-52
2022/10/30 05:44:36;;;;;;;4.80;3.13;;;22.30;55.70;;;;;;5013303;28;20030;-52
2022/10/30 05:47:02;;;;;;;5.78;3.15;;;22.30;55.70;;;;;;5030412;28;20096;-51
2022/10/30 05:49:31;;;;;;;3.65;2.40;;;22.30;55.70;;;;;;5012568;28;20049;-49
2022/10/30 05:51:58;;;;;;;4.85;3.05;;;22.30;55.70;;;;;;5006559;28;20040;-48
2022/10/30 05:54:24;;;;;;;5.47;3.03;;;22.30;55.80;;;;;;5029492;28;20948;-50
2022/10/30 05:57:06;;;;;;;5.85;3.20;;;22.30;55.70;;;;;;5007645;28;20025;-50
2022/10/30 05:59:35;;;;;;;5.97;3.10;;;22.30;55.70;;;;;;5028456;28;20022;-50
2022/10/30 06:02:02;;;;;;;7.00;3.30;;;22.20;55.70;;;;;;5006074;28;20030;-49
2022/10/30 06:04:28;;;;;;;6.47;2.88;;;22.30;55.80;;;;;;5030814;28;20025;-48
2022/10/30 06:06:53;;;;;;;6.07;3.40;;;22.20;55.70;;;;;;5002689;28;20076;-52
2022/10/30 06:09:19;;;;;;;7.07;3.13;;;22.20;55.80;;;;;;5028217;28;20048;-45
2022/10/30 06:12:08;;;;;;;4.13;2.90;;;22.20;55.70;;;;;;5028586;28;20345;-46
2022/10/30 06:14:52;;;;;;;6.88;3.40;;;22.20;55.80;;;;;;5008468;28;20129;-48
2022/10/30 06:17:17;;;;;;;7.80;3.00;;;22.30;55.80;;;;;;5030497;28;20473;-46
2022/10/30 06:19:53;;;;;;;7.43;3.78;;;22.20;55.70;;;;;;5048063;28;20048;-47
2022/10/30 06:22:38;;;;;;;5.35;3.25;;;22.20;55.70;;;;;;5049872;28;20044;-47
2022/10/30 06:25:13;;;;;;;6.28;3.42;;;22.20;55.70;;;;;;5048621;28;20089;-53
2022/10/30 06:27:52;;;;;;;5.93;3.25;;;22.20;55.70;;;;;;5036893;28;20028;-53
2022/10/30 06:30:19;;;;;;;5.60;3.15;;;22.20;55.70;;;;;;5040839;28;20048;-53
2022/10/30 06:32:45;;;;;;;6.03;3.25;;;22.20;55.70;;;;;;5048113;28;20025;-49
2022/10/30 06:35:11;;;;;;;5.65;3.30;;;22.20;55.70;;;;;;5043228;28;20135;-50
2022/10/30 06:37:39;;;;;;;5.45;2.90;;;22.20;55.60;;;;;;5033568;28;20152;-51
2022/10/30 06:40:09;;;;;;;4.50;3.00;;;22.20;55.60;;;;;;5036270;28;20028;-48
2022/10/30 06:43:01;;;;;;;5.38;3.00;;;22.20;55.60;;;;;;5046633;28;20164;-47
2022/10/30 06:45:36;;;;;;;6.88;3.20;;;22.20;55.60;;;;;;5037077;28;20029;-49
2022/10/30 06:48:02;;;;;;;7.35;3.25;;;22.20;55.60;;;;;;5042798;28;20036;-49
2022/10/30 06:50:32;;;;;;;4.78;2.97;;;22.20;55.60;;;;;;5045429;28;20033;-48
2022/10/30 06:52:58;;;;;;;4.90;2.35;;;22.20;55.60;;;;;;5038100;28;20342;-49
2022/10/30 06:55:24;;;;;;;5.95;3.13;;;22.20;55.60;;;;;;5048120;28;20029;-49
2022/10/30 06:58:01;;;;;;;4.88;3.10;;;22.20;55.70;;;;;;5047641;28;20091;-53
2022/10/30 07:00:38;;;;;;;6.70;3.40;;;22.20;55.70;;;;;;5055647;28;20352;-53
2022/10/30 07:03:22;;;;;;;6.88;3.60;;;22.20;55.70;;;;;;5052647;28;20043;-50
2022/10/30 07:05:48;;;;;;;8.75;3.30;;;22.20;55.70;;;;;;5047483;28;20041;-47
2022/10/30 07:08:13;;;;;;;5.45;3.40;;;22.20;55.70;;;;;;5047388;28;20040;-46
2022/10/30 07:10:39;;;;;;;4.28;3.05;;;22.10;55.70;;;;;;5040274;28;20021;-47
2022/10/30 07:13:34;;;;;;;;;;;22.20;55.70;;;;;;5048322;28;20049;-53
2022/10/30 07:16:25;;;;;;;6.35;3.08;;;22.20;55.60;;;;;;5032093;28;19917;-49
2022/10/30 07:18:51;;;;;;;5.38;2.63;;;22.20;55.60;;;;;;5046952;28;20041;-52
2022/10/30 07:21:17;;;;;;;7.80;3.28;;;22.10;55.50;;;;;;5043275;28;20029;-48
2022/10/30 07:23:44;;;;;;;3.55;2.42;;;22.10;55.50;;;;;;5040652;28;20025;-50
2022/10/30 07:26:20;;;;;;;4.68;3.15;;;22.10;55.50;;;;;;5035656;28;20349;-49
2022/10/30 07:28:46;;;;;;;4.85;3.00;;;22.20;55.60;;;;;;5049431;28;20047;-50
2022/10/30 07:31:15;;;;;;;5.75;3.40;;;22.10;55.60;;;;;;5051962;28;20033;-47
2022/10/30 07:33:49;;;;;;;6.35;3.72;;;22.10;55.60;;;;;;5050874;28;20518;-49
2022/10/30 07:36:26;;;;;;;4.90;2.67;;;22.10;55.60;;;;;;5051797;28;20033;-48
2022/10/30 07:39:01;;;;;;;6.05;3.67;;;22.10;55.70;;;;;;5047303;28;20032;-49
2022/10/30 07:41:39;;;;;;;7.85;3.25;;;22.10;55.70;;;;;;5053558;28;20478;-47
2022/10/30 07:44:24;;;;;;;5.05;2.80;;;22.10;55.80;;;;;;5068631;28;20110;-47
2022/10/30 07:47:25;;;;;;;6.05;2.95;;;22.10;55.90;;;;;;5012117;28;20052;-48
2022/10/30 07:50:00;;;;;;;5.53;3.22;;;22.10;55.90;;;;;;5031754;28;20045;-50
2022/10/30 07:52:31;;;;;;;6.00;2.83;;;22.10;55.90;;;;;;5055529;28;20352;-47
2022/10/30 07:54:57;;;;;;;9.23;3.15;;;22.10;56.00;;;;;;5057315;28;20036;-48
2022/10/30 07:57:45;;;;;;;6.80;3.10;;;22.20;56.10;;;;;;5055366;28;20403;-51
2022/10/30 08:00:20;;;;;;;3.70;2.67;;;22.20;56.10;;;;;;5058739;28;20075;-50
2022/10/30 08:02:56;;;;;;;4.13;2.80;;;22.20;56.20;;;;;;5054128;28;20025;-50
2022/10/30 08:05:41;;;;;;;7.40;3.45;;;22.20;56.30;;;;;;5054438;28;20047;-48
2022/10/30 08:08:10;;;;;;;4.78;3.20;;;22.20;56.30;;;;;;5052930;28;20444;-48
2022/10/30 08:10:36;;;;;;;6.60;3.08;;;22.10;56.20;;;;;;5058046;28;20111;-48
2022/10/30 08:13:02;;;;;;;6.45;3.30;;;22.20;56.30;;;;;;5051808;28;20059;-52
2022/10/30 08:15:28;;;;;;;5.82;3.20;;;22.20;56.30;;;;;;5046726;28;20053;-47
2022/10/30 08:17:54;;;;;;;5.75;3.17;;;22.20;56.40;;;;;;5035828;28;20480;-47
2022/10/30 08:20:23;;;;;;;5.93;3.03;;;22.20;56.40;;;;;;5056469;28;20372;-49
2022/10/30 08:22:52;;;;;;;4.43;2.80;;;22.20;56.50;;;;;;5056518;28;20095;-47
2022/10/30 08:25:26;;;;;;;5.07;3.33;;;22.20;56.40;;;;;;5045810;28;20037;-51
2022/10/30 08:28:03;;;;;;;4.75;3.08;;;22.20;56.40;;;;;;5051973;28;20354;-47
2022/10/30 08:30:35;;;;;;;6.85;3.15;;;22.20;56.30;;;;;;5052613;28;19963;-52
2022/10/30 08:33:12;;;;;;;4.55;3.15;;;22.20;56.30;;;;;;5063272;28;20034;-55
2022/10/30 08:35:58;;;;;;;4.55;3.20;;;22.20;56.30;;;;;;5052818;28;20075;-51
2022/10/30 08:38:26;;;;;;;6.13;3.28;;;22.20;56.40;;;;;;5056076;28;20036;-55
2022/10/30 08:41:04;;;;;;;6.65;3.53;;;22.20;56.40;;;;;;5054854;28;20032;-53
2022/10/30 08:43:34;;;;;;;6.28;3.55;;;22.20;56.40;;;;;;5072683;28;20127;-50
2022/10/30 08:46:00;;;;;;;6.32;3.55;;;22.20;56.40;;;;;;5076265;28;20123;-53
2022/10/30 08:48:26;;;;;;;5.72;2.95;;;22.20;56.40;;;;;;5063016;28;20033;-50
2022/10/30 08:50:57;;;;;;;5.93;3.45;;;22.20;56.40;;;;;;5044896;28;20041;-48
2022/10/30 08:53:28;;;;;;;4.78;3.53;;;22.20;56.30;;;;;;5052192;28;20021;-49
2022/10/30 08:55:54;;;;;;;4.82;3.55;;;22.20;56.20;;;;;;5050044;28;20025;-52
2022/10/30 08:58:41;;;;;;;4.78;3.40;;;22.30;56.20;;;;;;5052925;28;20024;-56
2022/10/30 09:01:07;;;;;;;4.88;3.13;;;22.20;56.10;;;;;;5051480;28;20033;-49
2022/10/30 09:03:56;;;;;;;4.93;3.28;;;22.20;56.00;;;;;;5029452;28;20099;-52
2022/10/30 09:06:41;;;;;;;5.38;3.47;;;22.20;55.90;;;;;;5056701;28;20513;-49
2022/10/30 09:09:26;;;;;;;5.85;3.45;;;22.20;55.90;;;;;;5054944;28;20037;-48
2022/10/30 09:11:55;;;;;;;6.03;3.85;;;22.20;55.90;;;;;;5037155;28;20049;-53
2022/10/30 09:14:21;;;;;;;6.25;3.40;;;22.20;55.80;;;;;;5051506;28;20071;-53
2022/10/30 09:16:47;;;;;;;6.28;3.30;;;22.20;55.80;;;;;;5054660;28;20471;-51
2022/10/30 09:19:14;;;;;;;7.07;3.63;;;22.30;55.90;;;;;;5053108;28;20032;-49
2022/10/30 09:21:40;;;;;;;6.32;3.88;;;22.30;55.80;;;;;;5055492;28;20440;-53
2022/10/30 09:24:07;;;;;;;6.88;3.60;;;22.30;55.80;;;;;;5054483;28;20032;-50
2022/10/30 09:26:32;;;;;;;6.93;3.47;;;22.30;55.80;;;;;;5055866;28;20037;-47
2022/10/30 09:29:37;;;;;;;7.20;4.25;;;22.30;55.80;;;;;;5026302;28;20464;-51
2022/10/30 09:32:09;;;;;;;18.23;7.82;;;22.30;55.90;;;;;;5035453;28;20030;-51
2022/10/30 09:35:03;;;;;;;22.02;10.10;;;22.30;56.90;;;;;;5050948;28;20025;-53
2022/10/30 09:37:36;;;;;;;26.88;12.23;;;22.30;59.10;;;;;;5055316;28;20037;-52
2022/10/30 09:40:06;;;;;;;30.35;14.35;;;22.30;61.00;;;;;;5054996;28;20025;-52
2022/10/30 09:42:43;;;;;;;29.38;14.65;;;22.40;62.70;;;;;;5066815;28;20032;-55
2022/10/30 09:45:37;;;;;;;34.03;15.80;;;22.40;63.80;;;;;;5049445;28;20040;-51
2022/10/30 09:48:21;;;;;;;29.10;14.93;;;22.40;64.80;;;;;;5055060;28;20451;-55
2022/10/30 09:51:27;;;;;;;33.22;16.20;;;22.40;65.80;;;;;;5054768;28;20064;-52
2022/10/30 09:54:19;;;;;;;38.42;17.88;;;22.50;66.50;;;;;;5055492;28;20025;-53
2022/10/30 09:57:26;;;;;;;37.35;18.52;;;22.50;67.50;;;;;;5051496;28;20084;-52
2022/10/30 10:00:11;;;;;;;41.25;18.73;;;22.50;68.30;;;;;;5035095;28;20503;-55
2022/10/30 10:03:16;;;;;;;38.08;18.13;;;22.60;70.00;;;;;;5054797;28;20047;-53
2022/10/30 10:06:05;;;;;;;29.83;15.80;;;22.60;69.60;;;;;;5014486;28;20472;-51
2022/10/30 10:08:59;;;;;;;31.50;14.25;;;22.60;68.70;;;;;;5048136;28;20103;-55
2022/10/30 10:11:38;;;;;;;28.40;14.70;;;22.70;68.50;;;;;;5055554;28;20033;-53
2022/10/30 10:14:28;;;;;;;24.20;14.35;;;22.70;68.80;;;;;;5055571;28;20051;-52
2022/10/30 10:16:55;;;;;;;26.80;13.90;;;22.70;68.90;;;;;;5055287;28;20064;-57
2022/10/30 10:19:48;;;;;;;22.48;10.68;;;22.80;68.90;;;;;;5054785;28;20033;-47
2022/10/30 10:22:25;;;;;;;19.67;9.50;;;22.80;67.60;;;;;;5054884;28;20112;-53
2022/10/30 10:24:53;;;;;;;14.05;8.13;;;22.80;67.20;;;;;;5055454;28;20075;-47
2022/10/30 10:27:25;;;;;;;14.73;7.43;;;22.80;65.50;;;;;;5054347;28;20037;-54
2022/10/30 10:30:11;;;;;;;14.52;7.35;;;22.80;64.40;;;;;;5054944;28;20470;-49
2022/10/30 10:33:04;;;;;;;14.13;7.00;;;22.80;63.60;;;;;;5054247;28;20045;-50
2022/10/30 10:35:42;;;;;;;10.68;5.50;;;22.90;62.80;;;;;;5055185;28;20025;-53
2022/10/30 10:38:23;;;;;;;14.18;6.28;;;22.90;62.30;;;;;;5055044;28;20029;-53
2022/10/30 10:41:30;;;;;;;11.90;6.35;;;22.90;61.90;;;;;;5039692;28;20468;-54
2022/10/30 10:44:03;;;;;;;8.85;5.78;;;22.90;61.50;;;;;;4995886;28;20037;-58
2022/10/30 10:46:40;;;;;;;9.77;5.82;;;22.90;61.30;;;;;;5052929;28;20376;-52
2022/10/30 10:49:30;;;;;;;10.15;5.68;;;22.90;61.10;;;;;;5054330;28;20036;-56
2022/10/30 10:52:13;;;;;;;8.77;4.82;;;23.00;61.00;;;;;;5054922;28;20033;-55
2022/10/30 10:54:48;;;;;;;11.00;5.43;;;23.00;60.80;;;;;;5061418;28;20024;-54
2022/10/30 10:57:31;;;;;;;9.77;5.13;;;23.00;60.60;;;;;;5036752;28;20090;-53
2022/10/30 11:00:10;;;;;;;9.52;5.25;;;23.00;60.40;;;;;;5053201;28;20487;-52
2022/10/30 11:02:56;;;;;;;9.65;5.35;;;23.00;60.20;;;;;;5061474;28;20443;-51
2022/10/30 11:05:38;;;;;;;9.80;5.38;;;23.00;60.00;;;;;;5054479;28;20036;-52
2022/10/30 11:08:17;;;;;;;9.52;5.03;;;23.00;60.00;;;;;;5053018;28;20021;-51
2022/10/30 11:10:54;;;;;;;9.25;5.05;;;23.00;59.90;;;;;;5054431;28;20029;-54
2022/10/30 11:13:40;;;;;;;10.40;4.85;;;23.00;59.80;;;;;;5055063;28;20100;-51
2022/10/30 11:16:27;;;;;;;7.78;5.25;;;23.10;59.80;;;;;;5054399;28;20053;-53
2022/10/30 11:19:00;;;;;;;8.15;4.93;;;23.10;59.70;;;;;;5052793;28;20032;-53
2022/10/30 11:21:31;;;;;;;11.00;4.60;;;23.10;59.70;;;;;;5047846;28;20099;-52
2022/10/30 11:23:57;;;;;;;8.10;4.88;;;23.10;59.70;;;;;;5047590;28;20083;-54
2022/10/30 11:26:27;;;;;;;8.20;5.05;;;23.10;59.60;;;;;;5049029;28;20033;-53
2022/10/30 11:28:55;;;;;;;7.97;5.05;;;23.10;59.60;;;;;;5049077;28;20033;-52
2022/10/30 11:31:41;;;;;;;8.02;4.80;;;23.10;59.50;;;;;;5040272;28;20111;-53
2022/10/30 11:34:16;;;;;;;8.73;4.97;;;23.20;59.50;;;;;;5045538;28;20025;-54
2022/10/30 11:36:43;;;;;;;8.68;4.90;;;23.20;59.50;;;;;;5048868;28;20025;-49
2022/10/30 11:39:14;;;;;;;8.85;4.72;;;23.20;59.40;;;;;;5046411;28;20028;-51
2022/10/30 11:41:41;;;;;;;6.05;4.28;;;23.20;59.40;;;;;;5052646;28;20474;-53
2022/10/30 11:44:08;;;;;;;7.25;4.65;;;23.20;59.30;;;;;;5047851;28;20112;-51
2022/10/30 11:46:35;;;;;;;8.07;4.10;;;23.20;59.20;;;;;;5047575;28;20083;-53
2022/10/30 11:49:01;;;;;;;5.85;3.95;;;23.30;59.20;;;;;;5046275;28;20048;-53
2022/10/30 11:51:38;;;;;;;9.23;4.20;;;23.20;59.10;;;;;;5047908;28;20091;-50
2022/10/30 11:54:06;;;;;;;9.18;4.25;;;23.30;59.10;;;;;;5046248;28;20071;-54
2022/10/30 11:56:35;;;;;;;8.10;4.60;;;23.30;59.00;;;;;;5049140;28;20107;-48
2022/10/30 11:59:03;;;;;;;7.20;4.57;;;23.30;59.00;;;;;;5047373;28;20033;-52
2022/10/30 12:01:33;;;;;;;8.48;5.13;;;23.30;58.90;;;;;;5049779;28;20025;-53
2022/10/30 12:04:23;;;;;;;5.55;3.78;;;23.40;58.90;;;;;;5048290;28;20029;-51
2022/10/30 12:07:22;;;;;;;7.03;4.25;;;23.40;58.80;;;;;;5048001;28;20115;-52
2022/10/30 12:09:49;;;;;;;8.88;4.40;;;23.30;58.70;;;;;;5030744;28;20487;-51
2022/10/30 12:12:23;;;;;;;10.70;4.82;;;23.40;58.70;;;;;;5058340;28;20037;-54
2022/10/30 12:14:50;;;;;;;8.07;4.20;;;23.40;58.70;;;;;;5046142;28;20405;-50
2022/10/30 12:17:17;;;;;;;9.27;4.65;;;23.40;58.60;;;;;;5049983;28;20852;-49
2022/10/30 12:19:52;;;;;;;6.15;4.18;;;23.40;58.60;;;;;;5051936;28;20035;-57
2022/10/30 12:22:33;;;;;;;6.10;4.30;;;23.40;58.50;;;;;;5048866;28;20364;-57
2022/10/30 12:25:03;;;;;;;7.68;4.30;;;23.40;58.50;;;;;;5049231;28;20037;-56
2022/10/30 12:27:33;;;;;;;6.10;3.97;;;23.40;58.40;;;;;;5049870;28;20086;-57
2022/10/30 12:30:18;;;;;;;6.13;3.63;;;23.50;58.40;;;;;;5051120;28;20123;-55
2022/10/30 12:32:55;;;;;;;7.03;4.00;;;23.60;58.10;;;;;;5033833;28;20111;-59
2022/10/30 12:35:23;;;;;;;7.00;4.32;;;23.60;57.90;;;;;;5050654;28;20729;-59
2022/10/30 12:37:52;;;;;;;11.18;4.30;;;23.70;57.60;;;;;;5052120;28;20120;-56
2022/10/30 12:40:30;;;;;;;5.95;3.72;;;23.90;57.30;;;;;;5049142;28;20025;-57
2022/10/30 12:43:26;;;;;;;7.43;3.85;;;24.00;57.00;;;;;;5054689;28;20033;-60
2022/10/30 12:46:02;;;;;;;6.32;3.75;;;24.10;56.90;;;;;;5050687;28;20020;-55
2022/10/30 12:48:36;;;;;;;5.50;3.30;;;24.20;56.80;;;;;;5048357;28;20037;-57
2022/10/30 12:51:22;;;;;;;8.05;3.50;;;24.30;56.80;;;;;;5049089;28;20032;-56
2022/10/30 12:53:58;;;;;;;6.57;3.58;;;24.40;56.80;;;;;;5054503;28;20513;-57
2022/10/30 12:56:36;;;;;;;6.20;3.33;;;24.50;56.70;;;;;;5052821;28;20021;-54
2022/10/30 12:59:31;;;;;;;5.30;3.45;;;24.60;56.60;;;;;;5049353;28;20668;-55
2022/10/30 13:02:00;;;;;;;;;;;24.70;56.50;;;;;;5049082;28;20069;-50
2022/10/30 13:04:35;;;;;;;7.25;3.63;;;24.80;56.50;;;;;;5051129;28;20006;-49
2022/10/30 13:07:12;;;;;;;5.85;3.20;;;24.90;56.30;;;;;;5048834;28;20029;-54
2022/10/30 13:09:53;;;;;;;6.85;3.20;;;25.00;55.90;;;;;;5046010;28;20114;-53
2022/10/30 13:12:25;;;;;;;5.97;3.60;;;25.00;55.60;;;;;;5048441;28;20356;-53
2022/10/30 13:14:59;;;;;;;6.05;3.03;;;25.10;55.30;;;;;;5047658;28;20067;-48